DKH1145 ZSPD-ZHHH
Flight info
| Callsign | DKH1145 |
|---|---|
| Flight time | N/A |
| Altitude | 25600 |
| Route | POMOK G330 UNTAN G345 OLRIS R343 MADUK W51 LEGIV W164 ADGOL W50 XSH |
| Aircraft | A20N/M-SDE2E3FGHIRWXY/LB1 |
Departure
| Time | N/A |
|---|---|
| Airport | Shanghai Pudong International Airport (ZSPD) |
Arrival
| Time | 2026-05-05 06:23 |
|---|---|
| Airport | Wuhan Tianhe International Airport (ZHHH) |
| Time | Latitude | Longitude | Altitude | Speed | Heading |
|---|---|---|---|---|---|
| 2026-05-05 06:17 | 30.91815 | 114.37624 | 2946 ft | 182 kts | 223° |
| 2026-05-05 06:18 | 30.90892 | 114.36593 | 2948 ft | 182 kts | 221° |
| 2026-05-05 06:18 | 30.89945 | 114.35588 | 2943 ft | 182 kts | 220° |
| 2026-05-05 06:18 | 30.89007 | 114.34617 | 2786 ft | 181 kts | 219° |
| 2026-05-05 06:18 | 30.88081 | 114.33656 | 2545 ft | 173 kts | 219° |
| 2026-05-05 06:19 | 30.87209 | 114.32757 | 2352 ft | 158 kts | 218° |
| 2026-05-05 06:19 | 30.86415 | 114.31944 | 2129 ft | 145 kts | 218° |
| 2026-05-05 06:19 | 30.85691 | 114.31207 | 1933 ft | 135 kts | 217° |
| 2026-05-05 06:19 | 30.84986 | 114.30491 | 1780 ft | 134 kts | 217° |
| 2026-05-05 06:20 | 30.84283 | 114.29777 | 1620 ft | 133 kts | 217° |
| 2026-05-05 06:20 | 30.83581 | 114.29063 | 1456 ft | 133 kts | 218° |
| 2026-05-05 06:20 | 30.82888 | 114.28356 | 1291 ft | 133 kts | 218° |
| 2026-05-05 06:20 | 30.82192 | 114.27645 | 1120 ft | 133 kts | 218° |
| 2026-05-05 06:21 | 30.81490 | 114.26929 | 945 ft | 133 kts | 219° |
| 2026-05-05 06:21 | 30.80800 | 114.26224 | 775 ft | 133 kts | 219° |
| 2026-05-05 06:21 | 30.80100 | 114.25510 | 604 ft | 133 kts | 219° |
| 2026-05-05 06:21 | 30.79406 | 114.24802 | 443 ft | 133 kts | 219° |
| 2026-05-05 06:22 | 30.78716 | 114.24097 | 276 ft | 132 kts | 220° |
| 2026-05-05 06:22 | 30.78027 | 114.23378 | 133 ft | 132 kts | 220° |
| 2026-05-05 06:22 | 30.77384 | 114.22729 | 116 ft | 104 kts | 220° |
| 2026-05-05 06:22 | 30.76965 | 114.22302 | 116 ft | 55 kts | 221° |
| 2026-05-05 06:23 | 30.76787 | 114.22065 | 116 ft | 30 kts | 243° |
| 2026-05-05 06:23 | 30.76743 | 114.21945 | 116 ft | 11 kts | 250° |
| 2026-05-05 06:23 | 30.76762 | 114.21876 | 116 ft | 10 kts | 326° |
| 2026-05-05 06:23 | 30.76827 | 114.21896 | 116 ft | 9 kts | 41° |
| 2026-05-05 06:24 | 30.76878 | 114.21949 | 116 ft | 10 kts | 41° |
| 2026-05-05 06:24 | 30.76936 | 114.22008 | 116 ft | 11 kts | 41° |
| 2026-05-05 06:24 | 30.77004 | 114.22077 | 116 ft | 13 kts | 41° |
| 2026-05-05 06:24 | 30.77079 | 114.22155 | 116 ft | 13 kts | 41° |
| 2026-05-05 06:25 | 30.77138 | 114.22215 | 116 ft | 12 kts | 41° |
| 2026-05-05 06:25 | 30.77207 | 114.22285 | 116 ft | 13 kts | 41° |
| 2026-05-05 06:25 | 30.77265 | 114.22342 | 116 ft | 9 kts | 30° |
| 2026-05-05 06:25 | 30.77323 | 114.22325 | 116 ft | 9 kts | 314° |
| 2026-05-05 06:26 | 30.77376 | 114.22256 | 116 ft | 12 kts | 311° |
| 2026-05-05 06:26 | 30.77442 | 114.22168 | 116 ft | 15 kts | 311° |
| 2026-05-05 06:26 | 30.77519 | 114.22067 | 116 ft | 18 kts | 311° |
| 2026-05-05 06:26 | 30.77608 | 114.21950 | 116 ft | 19 kts | 311° |
| 2026-05-05 06:27 | 30.77699 | 114.21832 | 116 ft | 20 kts | 311° |
| 2026-05-05 06:27 | 30.77892 | 114.21582 | 116 ft | 21 kts | 314° |
| 2026-05-05 06:27 | 30.77995 | 114.21458 | 116 ft | 21 kts | 312° |
| 2026-05-05 06:28 | 30.78082 | 114.21345 | 116 ft | 17 kts | 311° |
| 2026-05-05 06:28 | 30.78165 | 114.21236 | 116 ft | 18 kts | 311° |
| 2026-05-05 06:28 | 30.78239 | 114.21139 | 116 ft | 9 kts | 312° |
| 2026-05-05 06:28 | 30.78251 | 114.21072 | 116 ft | 9 kts | 240° |
| 2026-05-05 06:29 | 30.78199 | 114.21013 | 116 ft | 10 kts | 221° |
| 2026-05-05 06:29 | 30.78143 | 114.20956 | 116 ft | 10 kts | 221° |
| 2026-05-05 06:29 | 30.78090 | 114.20901 | 116 ft | 8 kts | 221° |
| 2026-05-05 06:29 | 30.78047 | 114.20857 | 116 ft | 8 kts | 221° |
| 2026-05-05 06:30 | 30.77995 | 114.20804 | 116 ft | 10 kts | 221° |
| 2026-05-05 06:30 | 30.77934 | 114.20742 | 116 ft | 12 kts | 220° |
| 2026-05-05 06:30 | 30.77862 | 114.20669 | 116 ft | 14 kts | 221° |
| 2026-05-05 06:30 | 30.77789 | 114.20593 | 116 ft | 14 kts | 221° |
| 2026-05-05 06:31 | 30.77727 | 114.20531 | 116 ft | 10 kts | 221° |
| 2026-05-05 06:31 | 30.77668 | 114.20523 | 116 ft | 10 kts | 143° |
| 2026-05-05 06:31 | 30.77612 | 114.20595 | 116 ft | 13 kts | 131° |
| 2026-05-05 06:31 | 30.77551 | 114.20675 | 116 ft | 12 kts | 131° |
| 2026-05-05 06:32 | 30.77520 | 114.20708 | 116 ft | 3 kts | 172° |
| 2026-05-05 06:32 | 30.77499 | 114.20696 | 116 ft | 3 kts | 214° |
| 2026-05-05 06:32 | 30.77484 | 114.20682 | 116 ft | 2 kts | 220° |
| 2026-05-05 06:32 | 30.77475 | 114.20674 | 116 ft | 0 kts | 221° |
| 2026-05-05 06:33 | 30.77474 | 114.20673 | 116 ft | 0 kts | 221° |